createdAt,value
2023-03-06T00:03:39.063Z,99379.06
2023-03-06T00:08:42.437Z,99376.33
2023-03-06T00:13:46.097Z,99375.96
2023-03-06T00:18:49.607Z,99371.75
2023-03-06T00:23:53.063Z,99368.88
2023-03-06T00:28:56.986Z,99363.63
2023-03-06T00:34:00.387Z,99368.98
2023-03-06T00:39:04.069Z,99362.40
2023-03-06T00:44:08.002Z,99360.04
2023-03-06T00:49:11.668Z,99358.02
2023-03-06T00:54:15.261Z,99357.02
2023-03-06T00:59:18.731Z,99351.14
2023-03-06T01:04:22.268Z,99338.19
2023-03-06T01:09:25.788Z,99332.14
2023-03-06T01:14:31.375Z,99326.74
2023-03-06T01:19:34.954Z,99325.39
2023-03-06T01:24:38.703Z,99316.63
2023-03-06T01:29:42.059Z,99311.92
2023-03-06T01:34:47.770Z,99306.70
2023-03-06T01:39:51.242Z,99303.70
2023-03-06T01:45:04.722Z,99295.30
2023-03-06T01:50:11.618Z,99289.92
2023-03-06T01:55:19.274Z,99288.27
2023-03-06T02:00:25.728Z,99283.75
2023-03-06T02:05:29.521Z,99281.08
2023-03-06T02:10:33.346Z,99282.60
2023-03-06T02:15:36.775Z,99279.77
2023-03-06T02:20:45.913Z,99266.64
2023-03-06T02:25:52.669Z,99260.41
2023-03-06T02:30:57.065Z,99247.44
2023-03-06T02:36:02.729Z,99241.04
2023-03-06T02:41:08.694Z,99236.82
2023-03-06T02:46:12.402Z,99230.42
2023-03-06T02:51:16.350Z,99227.54
2023-03-06T02:56:20.445Z,99222.83
2023-03-06T03:01:23.907Z,99218.44
2023-03-06T03:06:27.525Z,99206.96
2023-03-06T03:11:31.698Z,99201.23
2023-03-06T03:16:37.535Z,99200.06
2023-03-06T03:21:42.539Z,99191.96
2023-03-06T03:26:46.076Z,99188.42
2023-03-06T03:31:51.740Z,99181.34
2023-03-06T03:36:55.872Z,99176.95
2023-03-06T03:41:59.995Z,99172.73
2023-03-06T03:47:06.051Z,99168.16
2023-03-06T03:52:09.832Z,99160.91
2023-03-06T03:57:14.575Z,99159.05
2023-03-06T04:02:21.983Z,99149.95
2023-03-06T04:07:32.455Z,99149.45
2023-03-06T04:12:37.219Z,99141.84
2023-03-06T04:17:40.880Z,99138.64
2023-03-06T04:22:47.344Z,99128.35
2023-03-06T04:27:50.962Z,99121.59
2023-03-06T04:32:55.072Z,99116.69
2023-03-06T04:38:00.024Z,99106.73
2023-03-06T04:43:06.141Z,99105.36
2023-03-06T04:48:12.285Z,99101.81
2023-03-06T04:53:16.335Z,99102.63
2023-03-06T04:58:20.201Z,99095.70
2023-03-06T05:03:23.727Z,99106.98
2023-03-06T05:08:27.083Z,99098.69
2023-03-06T05:13:30.762Z,99092.91
2023-03-06T05:18:35.384Z,99092.86
2023-03-06T05:23:38.996Z,99085.20
2023-03-06T05:28:43.024Z,99092.76
2023-03-06T05:33:46.418Z,99087.33
2023-03-06T05:38:49.922Z,99083.44
2023-03-06T05:43:54.319Z,99085.95
2023-03-06T05:48:57.974Z,99085.26
2023-03-06T05:54:01.522Z,99087.44
2023-03-06T05:59:05.102Z,99084.71
2023-03-06T06:04:08.511Z,99081.30
2023-03-06T06:09:13.911Z,99082.64
2023-03-06T06:14:17.507Z,99083.26
2023-03-06T06:19:21.437Z,99088.29
2023-03-06T06:24:26.259Z,99088.39
2023-03-06T06:29:30.548Z,99093.89
2023-03-06T06:34:34.176Z,99092.80
2023-03-06T06:39:37.573Z,99100.63
2023-03-06T06:44:41.265Z,99103.91
2023-03-06T06:49:45.893Z,99104.67
2023-03-06T06:54:49.424Z,99106.61
2023-03-06T06:59:54.171Z,99103.64
2023-03-06T07:05:04.280Z,99105.89
2023-03-06T07:10:13.980Z,99096.98
2023-03-06T07:15:18.026Z,99097.02
2023-03-06T07:20:21.852Z,99095.38
2023-03-06T07:25:25.516Z,99095.89
2023-03-06T07:30:29.023Z,99099.27
2023-03-06T07:35:32.757Z,99102.14
2023-03-06T07:40:38.240Z,99109.56
2023-03-06T07:45:41.960Z,99110.42
2023-03-06T07:50:45.787Z,99112.84
2023-03-06T07:55:49.193Z,99111.03
2023-03-06T08:00:53.016Z,99105.85
2023-03-06T08:06:05.644Z,99108.44
2023-03-06T08:11:11.162Z,99109.80
2023-03-06T08:16:15.013Z,99111.70
2023-03-06T08:21:20.791Z,99109.48
2023-03-06T08:26:26.282Z,99107.93
2023-03-06T08:31:31.587Z,99107.79
2023-03-06T08:36:35.273Z,99105.23
2023-03-06T08:41:41.432Z,99109.48
2023-03-06T08:46:44.912Z,99109.71
2023-03-06T08:51:48.256Z,99109.13
2023-03-06T08:56:51.690Z,99110.39
2023-03-06T09:01:55.161Z,99113.36
2023-03-06T09:07:00.801Z,99112.92
2023-03-06T09:12:04.636Z,99108.62
2023-03-06T09:17:08.078Z,99110.76
2023-03-06T09:22:11.640Z,99106.87
2023-03-06T09:27:18.174Z,99107.02
2023-03-06T09:32:22.007Z,99108.23
2023-03-06T09:37:25.448Z,99106.65
2023-03-06T09:42:31.285Z,99106.64
2023-03-06T09:47:45.221Z,99102.88
2023-03-06T09:53:06.421Z,99100.77
2023-03-06T09:58:16.453Z,99102.02
2023-03-06T10:03:27.065Z,99098.63
2023-03-06T10:08:42.667Z,99096.65
2023-03-06T10:13:48.351Z,99091.64
2023-03-06T10:18:52.263Z,99090.32
2023-03-06T10:24:05.402Z,99088.25
2023-03-06T10:29:34.205Z,99081.46
2023-03-06T10:34:39.774Z,99076.05
2023-03-06T10:39:43.204Z,99069.54
2023-03-06T10:44:46.836Z,99060.33
2023-03-06T10:49:58.545Z,99053.64
2023-03-06T10:55:25.819Z,99047.59
2023-03-06T11:00:35.593Z,99047.64
2023-03-06T11:05:39.327Z,99041.09
2023-03-06T11:10:56.590Z,99032.80
2023-03-06T11:16:03.825Z,99028.41
2023-03-06T11:21:25.655Z,99028.63
2023-03-06T11:26:36.123Z,99021.94
2023-03-06T11:31:45.859Z,99025.19
2023-03-06T11:36:53.345Z,99022.37
2023-03-06T11:42:04.948Z,99017.09
2023-03-06T11:47:17.318Z,99015.98
2023-03-06T11:52:27.008Z,99013.02
2023-03-06T11:57:39.259Z,99004.00
2023-03-06T12:03:13.743Z,99000.54
2023-03-06T12:08:36.184Z,98998.23
2023-03-06T12:13:56.289Z,98988.22
2023-03-06T12:19:12.769Z,98979.73
2023-03-06T12:24:51.325Z,98975.05
2023-03-06T12:30:19.222Z,98969.80
2023-03-06T12:35:38.559Z,98958.80
2023-03-06T12:40:57.375Z,98954.73
2023-03-06T12:46:22.092Z,98951.50
2023-03-06T12:51:26.037Z,98957.62
2023-03-06T12:56:31.327Z,98968.39
2023-03-06T13:01:54.965Z,98978.80
2023-03-06T13:07:18.712Z,98983.13
2023-03-06T13:12:38.474Z,98980.88
2023-03-06T13:17:42.018Z,98977.14
2023-03-06T13:22:47.216Z,98977.64
2023-03-06T13:28:02.952Z,98983.98
2023-03-06T13:33:38.450Z,98985.56
2023-03-06T13:39:14.927Z,98986.02
2023-03-06T13:44:51.297Z,98987.69
2023-03-06T13:49:55.008Z,98990.98
2023-03-06T13:55:09.576Z,98986.81
2023-03-06T14:00:36.789Z,98986.45
2023-03-06T14:05:44.531Z,98988.11
2023-03-06T14:10:57.898Z,98982.52
2023-03-06T14:16:01.567Z,98982.95
2023-03-06T14:21:12.638Z,98966.06
2023-03-06T14:26:18.948Z,98956.48
2023-03-06T14:31:24.824Z,98950.42
2023-03-06T14:36:33.879Z,98947.00
2023-03-06T14:41:37.914Z,98941.45
2023-03-06T14:46:41.550Z,98930.48
2023-03-06T14:51:47.349Z,98925.71
2023-03-06T14:56:53.558Z,98921.11
2023-03-06T15:02:01.733Z,98918.70
2023-03-06T15:07:10.205Z,98917.62
2023-03-06T15:12:35.645Z,98919.06
2023-03-06T15:17:41.102Z,98916.16
2023-03-06T15:22:49.930Z,98916.52
2023-03-06T15:27:56.481Z,98918.29
2023-03-06T15:33:18.724Z,98918.76
2023-03-06T15:38:29.669Z,98921.55
2023-03-06T15:43:37.174Z,98923.27
2023-03-06T15:48:50.421Z,98924.48
2023-03-06T15:53:59.798Z,98918.53
2023-03-06T15:59:16.267Z,98914.88
2023-03-06T16:04:19.722Z,98916.98
2023-03-06T16:09:23.300Z,98915.17
2023-03-06T16:14:27.239Z,98915.34
2023-03-06T16:19:30.878Z,98915.77
2023-03-06T16:24:34.242Z,98915.86
2023-03-06T16:29:38.067Z,98910.96
2023-03-06T16:34:41.608Z,98917.35
2023-03-06T16:39:45.266Z,98921.29
2023-03-06T16:44:48.657Z,98922.84
2023-03-06T16:49:56.865Z,98924.81
2023-03-06T16:55:00.575Z,98926.48
2023-03-06T17:00:06.307Z,98927.09
2023-03-06T17:05:11.511Z,98932.23
2023-03-06T17:10:18.261Z,98938.19
2023-03-06T17:15:21.894Z,98936.67
2023-03-06T17:20:25.373Z,98939.96
2023-03-06T17:25:29.129Z,98940.39
2023-03-06T17:30:32.519Z,98942.56
2023-03-06T17:35:36.520Z,98940.66
2023-03-06T17:40:40.103Z,98943.81
2023-03-06T17:45:44.842Z,98943.05
2023-03-06T17:50:54.358Z,98945.71
2023-03-06T17:55:58.230Z,98945.88
2023-03-06T18:01:08.543Z,98948.08
2023-03-06T18:06:12.301Z,98948.02
2023-03-06T18:11:16.813Z,98951.30
2023-03-06T18:16:23.573Z,98952.25
2023-03-06T18:21:27.267Z,98955.80
2023-03-06T18:26:30.968Z,98955.64
2023-03-06T18:31:36.181Z,98960.96
2023-03-06T18:36:41.758Z,98961.83
2023-03-06T18:41:45.128Z,98971.08
2023-03-06T18:46:48.595Z,98968.30
2023-03-06T18:51:52.012Z,98978.05
2023-03-06T18:56:55.441Z,98980.52
2023-03-06T19:01:58.786Z,98983.00
2023-03-06T19:07:02.197Z,98985.62
2023-03-06T19:12:06.926Z,98984.04
2023-03-06T19:17:10.478Z,98985.45
2023-03-06T19:22:14.010Z,98986.38
2023-03-06T19:27:17.516Z,98988.12
2023-03-06T19:32:21.751Z,98991.55
2023-03-06T19:37:25.423Z,98997.33
2023-03-06T19:42:29.535Z,99001.23
2023-03-06T19:47:33.290Z,98999.20
2023-03-06T19:52:38.583Z,98997.02
2023-03-06T19:57:42.762Z,98997.54
2023-03-06T20:02:46.337Z,98998.05
2023-03-06T20:07:49.777Z,99004.31
2023-03-06T20:12:53.421Z,99009.89
2023-03-06T20:17:57.384Z,99017.50
2023-03-06T20:23:03.856Z,99016.64
2023-03-06T20:28:07.350Z,99017.48
2023-03-06T20:33:10.764Z,99015.27
2023-03-06T20:38:14.612Z,99019.85
2023-03-06T20:43:18.071Z,99023.05
2023-03-06T20:48:21.661Z,99019.84
2023-03-06T20:53:26.216Z,99025.75
2023-03-06T20:58:31.301Z,99019.14
2023-03-06T21:03:34.924Z,99024.54
2023-03-06T21:08:39.148Z,99017.26
2023-03-06T21:13:43.314Z,99012.37
2023-03-06T21:18:47.539Z,99014.07
2023-03-06T21:23:51.213Z,99011.52
2023-03-06T21:28:55.890Z,99013.90
2023-03-06T21:34:00.019Z,99012.58
2023-03-06T21:39:05.628Z,99013.59
2023-03-06T21:44:10.453Z,99010.21
2023-03-06T21:49:13.996Z,99011.38
2023-03-06T21:54:17.896Z,99009.18
2023-03-06T21:59:21.501Z,99009.52
2023-03-06T22:04:25.616Z,99007.17
2023-03-06T22:09:29.470Z,99005.30
2023-03-06T22:14:33.014Z,99000.07
2023-03-06T22:19:36.861Z,99000.08
2023-03-06T22:24:40.582Z,98992.48
2023-03-06T22:29:45.195Z,98992.81
2023-03-06T22:34:49.379Z,98995.02
2023-03-06T22:39:52.807Z,98993.14
2023-03-06T22:44:56.311Z,98997.20
2023-03-06T22:49:59.834Z,98990.27
2023-03-06T22:55:03.954Z,98986.19
2023-03-06T23:00:10.731Z,98987.90
2023-03-06T23:05:14.734Z,98991.79
2023-03-06T23:10:19.000Z,98989.09
2023-03-06T23:15:41.385Z,98993.64
2023-03-06T23:21:06.041Z,98988.75
2023-03-06T23:26:29.962Z,98992.16
2023-03-06T23:31:33.976Z,98988.48
2023-03-06T23:36:37.829Z,98990.17
2023-03-06T23:41:41.477Z,98992.56
2023-03-06T23:46:45.333Z,98995.30
2023-03-06T23:51:49.031Z,98993.83
2023-03-06T23:56:52.860Z,98992.99
